createdAt,value
2017-06-18T00:00:01.472Z,77.21
2017-06-18T00:00:27.741Z,77.01
2017-06-18T00:00:54.360Z,76.92
2017-06-18T00:01:21.304Z,76.92
2017-06-18T00:01:47.574Z,76.82
2017-06-18T00:02:13.791Z,77.01
2017-06-18T00:02:40.052Z,77.01
2017-06-18T00:03:06.250Z,77.31
2017-06-18T00:03:32.482Z,77.11
2017-06-18T00:03:58.751Z,77.01
2017-06-18T00:04:24.968Z,76.82
2017-06-18T00:04:51.614Z,77.31
2017-06-18T00:05:17.775Z,77.31
2017-06-18T00:05:44.037Z,76.82
2017-06-18T00:06:10.675Z,77.11
2017-06-18T00:06:36.995Z,76.92
2017-06-18T00:07:03.451Z,76.92
2017-06-18T00:07:29.655Z,77.01
2017-06-18T00:07:55.896Z,76.88
2017-06-18T00:08:22.159Z,77.26
2017-06-18T00:08:48.363Z,77.11
2017-06-18T00:09:14.562Z,77.31
2017-06-18T00:09:40.773Z,77.01
2017-06-18T00:10:07.044Z,77.01
2017-06-18T00:10:33.254Z,77.17
2017-06-18T00:10:59.509Z,76.88
2017-06-18T00:11:25.855Z,77.01
2017-06-18T00:11:52.167Z,76.78
2017-06-18T00:12:18.792Z,76.92
2017-06-18T00:12:44.949Z,76.98
2017-06-18T00:13:11.166Z,76.69
2017-06-18T00:13:37.370Z,76.92
2017-06-18T00:14:03.570Z,77.21
2017-06-18T00:14:29.784Z,77.5
2017-06-18T00:14:55.999Z,77.5
2017-06-18T00:15:22.211Z,77.36
2017-06-18T00:15:48.435Z,77.56
2017-06-18T00:16:14.741Z,77.69
2017-06-18T00:16:41.066Z,77.78
2017-06-18T00:17:07.273Z,77.75
2017-06-18T00:17:33.484Z,77.46
2017-06-18T00:17:59.703Z,77.56
2017-06-18T00:18:25.903Z,77.84
2017-06-18T00:18:52.122Z,77.36
2017-06-18T00:19:18.370Z,77.65
2017-06-18T00:19:44.792Z,77.26
2017-06-18T00:20:10.996Z,77.36
2017-06-18T00:20:37.265Z,77.56
2017-06-18T00:21:03.461Z,77.08
2017-06-18T00:21:29.674Z,77.36
2017-06-18T00:21:55.885Z,77.56
2017-06-18T00:22:22.098Z,77.36
2017-06-18T00:22:48.298Z,77.56
2017-06-18T00:23:14.631Z,77.36
2017-06-18T00:23:41.132Z,77.46
2017-06-18T00:24:07.333Z,77.56
2017-06-18T00:24:33.567Z,77.56
2017-06-18T00:24:59.769Z,77.17
2017-06-18T00:25:25.982Z,77.75
2017-06-18T00:25:52.237Z,77.46
2017-06-18T00:26:18.643Z,77.75
2017-06-18T00:26:44.884Z,77.17
2017-06-18T00:27:11.097Z,77.36
2017-06-18T00:27:37.343Z,77.36
2017-06-18T00:28:03.526Z,77.08
2017-06-18T00:28:29.786Z,77.56
2017-06-18T00:28:56.000Z,77.26
2017-06-18T00:29:22.240Z,77.17
2017-06-18T00:29:48.507Z,77.65
2017-06-18T00:30:14.731Z,77.75
2017-06-18T00:30:41.001Z,77.84
2017-06-18T00:31:07.250Z,77.46
2017-06-18T00:31:33.500Z,77.46
2017-06-18T00:31:59.717Z,77.36
2017-06-18T00:32:25.927Z,77.46
2017-06-18T00:32:52.228Z,77.56
2017-06-18T00:33:18.433Z,78.13
2017-06-18T00:33:44.642Z,77.84
2017-06-18T00:34:10.887Z,78.03
2017-06-18T00:34:37.066Z,77.94
2017-06-18T00:35:03.318Z,77.94
2017-06-18T00:35:29.537Z,78.03
2017-06-18T00:35:55.832Z,77.84
2017-06-18T00:36:22.012Z,78.03
2017-06-18T00:36:48.251Z,77.94
2017-06-18T00:37:14.534Z,78.13
2017-06-18T00:37:40.701Z,77.46
2017-06-18T00:38:06.896Z,77.17
2017-06-18T00:38:33.084Z,77.36
2017-06-18T00:38:59.263Z,77.36
2017-06-18T00:39:25.444Z,77.65
2017-06-18T00:39:51.645Z,77.94
2017-06-18T00:40:17.881Z,77.84
2017-06-18T00:40:44.094Z,77.94
2017-06-18T00:41:10.274Z,77.75
2017-06-18T00:41:36.522Z,78.23
2017-06-18T00:42:02.724Z,78.13
2017-06-18T00:42:28.845Z,78.03
2017-06-18T00:42:54.991Z,77.94
2017-06-18T00:43:21.130Z,77.94
2017-06-18T00:43:47.264Z,77.75
2017-06-18T00:44:13.381Z,77.56
2017-06-18T00:44:39.513Z,77.46
2017-06-18T00:45:05.618Z,77.75
2017-06-18T00:45:31.712Z,77.75
2017-06-18T00:45:57.836Z,77.56
2017-06-18T00:46:23.950Z,77.65
2017-06-18T00:46:50.052Z,77.17
2017-06-18T00:47:16.186Z,77.26
2017-06-18T00:47:42.300Z,77.75
2017-06-18T00:48:08.398Z,78.03
2017-06-18T00:48:34.503Z,77.75
2017-06-18T00:49:00.607Z,77.84
2017-06-18T00:49:26.711Z,77.94
2017-06-18T00:49:52.818Z,78.03
2017-06-18T00:50:18.922Z,78.13
2017-06-18T00:50:45.026Z,77.75
2017-06-18T00:51:11.132Z,77.56
2017-06-18T00:51:37.228Z,77.75
2017-06-18T00:52:03.325Z,77.26
2017-06-18T00:52:29.432Z,77.65
2017-06-18T00:52:55.526Z,77.65
2017-06-18T00:53:21.617Z,77.84
2017-06-18T00:53:47.726Z,77.94
2017-06-18T00:54:13.826Z,77.75
2017-06-18T00:54:39.928Z,78.09
2017-06-18T00:55:06.047Z,78.38
2017-06-18T00:55:32.168Z,77.94
2017-06-18T00:55:58.276Z,78.28
2017-06-18T00:56:24.371Z,78.09
2017-06-18T00:56:50.486Z,78.28
2017-06-18T00:57:16.596Z,77.9
2017-06-18T00:57:42.691Z,78.28
2017-06-18T00:58:08.781Z,78.28
2017-06-18T00:58:34.914Z,78.42
2017-06-18T00:59:01.043Z,78.28
2017-06-18T00:59:27.158Z,78.58
2017-06-18T00:59:53.261Z,78.19
2017-06-18T01:00:19.368Z,79.15
2017-06-18T01:00:45.512Z,78.58
2017-06-18T01:01:11.613Z,78.48
2017-06-18T01:01:37.717Z,78.09
2017-06-18T01:02:03.834Z,78.09
2017-06-18T01:02:29.955Z,79.05
2017-06-18T01:02:56.063Z,78.96
2017-06-18T01:03:22.159Z,78.96
2017-06-18T01:03:48.252Z,78.96
2017-06-18T01:04:14.361Z,78.96
2017-06-18T01:04:40.459Z,78.86
2017-06-18T01:05:06.549Z,78.67
2017-06-18T01:05:32.656Z,78.38
2017-06-18T01:05:58.752Z,78.96
2017-06-18T01:06:24.885Z,78.96
2017-06-18T01:06:50.979Z,78.96
2017-06-18T01:07:17.069Z,78.96
2017-06-18T01:07:43.182Z,78.96
2017-06-18T01:08:09.306Z,78.96
2017-06-18T01:08:35.445Z,78.96
2017-06-18T01:09:01.552Z,79.15
2017-06-18T01:09:27.651Z,78.96
2017-06-18T01:09:53.742Z,78.96
2017-06-18T01:10:19.847Z,78.96
2017-06-18T01:10:45.953Z,78.67
2017-06-18T01:11:12.073Z,78.67
2017-06-18T01:11:38.222Z,78.77
2017-06-18T01:12:04.311Z,78.86
2017-06-18T01:12:30.416Z,79.05
2017-06-18T01:12:56.517Z,78.67
2017-06-18T01:13:22.608Z,78.67
2017-06-18T01:13:48.741Z,79.05
2017-06-18T01:14:14.849Z,78.19
2017-06-18T01:14:40.936Z,78.48
2017-06-18T01:15:07.036Z,78
2017-06-18T01:15:33.196Z,78.09
2017-06-18T01:15:59.286Z,78.09
2017-06-18T01:16:25.384Z,78.23
2017-06-18T01:16:51.482Z,78.28
2017-06-18T01:17:17.637Z,78.09
2017-06-18T01:17:43.769Z,78
2017-06-18T01:18:09.856Z,78.48
2017-06-18T01:18:35.956Z,78.38
2017-06-18T01:19:02.064Z,78.48
2017-06-18T01:19:28.155Z,78.96
2017-06-18T01:19:54.253Z,78.86
2017-06-18T01:20:20.359Z,78.86
2017-06-18T01:20:46.481Z,78.96
2017-06-18T01:21:12.595Z,79.05
2017-06-18T01:21:38.706Z,79.05
2017-06-18T01:22:04.831Z,79.05
2017-06-18T01:22:30.946Z,79.44
2017-06-18T01:22:57.107Z,79.15
2017-06-18T01:23:23.206Z,78.86
2017-06-18T01:23:49.296Z,78.38
2017-06-18T01:24:15.427Z,79.05
2017-06-18T01:24:41.533Z,78.77
2017-06-18T01:25:07.621Z,79.05
2017-06-18T01:25:33.721Z,78.96
2017-06-18T01:25:59.829Z,78.67
2017-06-18T01:26:25.970Z,78.96
2017-06-18T01:26:52.093Z,78.58
2017-06-18T01:27:18.202Z,79.05
2017-06-18T01:27:44.321Z,78.86
2017-06-18T01:28:10.482Z,78.77
2017-06-18T01:28:36.572Z,78.67
2017-06-18T01:29:02.693Z,79.25
2017-06-18T01:29:28.800Z,79.05
2017-06-18T01:29:54.941Z,78.28
2017-06-18T01:30:21.039Z,78.19
2017-06-18T01:30:47.147Z,78
2017-06-18T01:31:13.241Z,78.28
2017-06-18T01:31:39.331Z,78.09
2017-06-18T01:32:05.442Z,78.28
2017-06-18T01:32:31.540Z,78.77
2017-06-18T01:32:57.678Z,78.48
2017-06-18T01:33:23.784Z,78.38
2017-06-18T01:33:49.878Z,78.38
2017-06-18T01:34:16.011Z,79.05
2017-06-18T01:34:42.103Z,78.77
2017-06-18T01:35:08.193Z,78.96
2017-06-18T01:35:34.327Z,78.48
2017-06-18T01:36:00.425Z,78.38
2017-06-18T01:36:26.518Z,78.58
2017-06-18T01:36:52.652Z,78.77
2017-06-18T01:37:18.750Z,79.15
2017-06-18T01:37:44.841Z,78.09
2017-06-18T01:38:10.945Z,78.38
2017-06-18T01:38:37.052Z,78.48
2017-06-18T01:39:03.144Z,78.77
2017-06-18T01:39:29.242Z,78.96
2017-06-18T01:39:55.333Z,78.86
2017-06-18T01:40:21.438Z,79.15
2017-06-18T01:40:47.539Z,79.25
2017-06-18T01:41:13.652Z,79.4
2017-06-18T01:41:39.757Z,79.44
2017-06-18T01:42:05.864Z,79.44
2017-06-18T01:42:31.952Z,79.3
2017-06-18T01:42:58.053Z,79.69
2017-06-18T01:43:24.165Z,79.44
2017-06-18T01:43:50.251Z,79.63
2017-06-18T01:44:16.369Z,79.63
2017-06-18T01:44:42.476Z,79.5
2017-06-18T01:45:08.573Z,79.4
2017-06-18T01:45:34.663Z,79.35
2017-06-18T01:46:00.800Z,79.5
2017-06-18T01:46:26.896Z,79.4
2017-06-18T01:46:53.012Z,79.44
2017-06-18T01:47:19.119Z,79.3
2017-06-18T01:47:45.220Z,79.53
2017-06-18T01:48:11.309Z,79.5
2017-06-18T01:48:37.438Z,79.25
2017-06-18T01:49:03.572Z,79.4
2017-06-18T01:49:29.661Z,79.5
2017-06-18T01:49:55.785Z,79.5
2017-06-18T01:50:21.882Z,79.35
2017-06-18T01:50:47.987Z,79.3
2017-06-18T01:51:14.086Z,79.5
2017-06-18T01:51:40.176Z,79.44
2017-06-18T01:52:06.308Z,79.44
2017-06-18T01:52:32.415Z,79.4
2017-06-18T01:52:58.534Z,79.4
2017-06-18T01:53:24.603Z,79.63
2017-06-18T01:53:51.556Z,79.5
2017-06-18T01:54:19.364Z,79.5
2017-06-18T01:54:45.885Z,79.21
2017-06-18T01:55:13.765Z,79.5
2017-06-18T01:55:41.580Z,79.15
2017-06-18T01:56:09.132Z,79.3
2017-06-18T01:56:36.091Z,79.21
2017-06-18T01:57:03.802Z,79.15
2017-06-18T01:57:31.566Z,78.92
2017-06-18T01:57:59.221Z,79.02
2017-06-18T01:58:25.318Z,78.92
2017-06-18T01:58:51.425Z,78.92
2017-06-18T01:59:17.545Z,79.11
2017-06-18T01:59:43.635Z,79.5
2017-06-18T02:00:09.745Z,79.21
2017-06-18T02:00:35.886Z,79.21
2017-06-18T02:01:01.958Z,79.5
2017-06-18T02:01:28.063Z,79.3
2017-06-18T02:01:54.158Z,79.3
2017-06-18T02:02:20.265Z,79.21
2017-06-18T02:02:46.360Z,79.5
2017-06-18T02:03:12.473Z,79.5
2017-06-18T02:03:38.637Z,79.5
2017-06-18T02:04:04.790Z,79.5
2017-06-18T02:04:30.880Z,79.5
2017-06-18T02:04:57.038Z,79.11
2017-06-18T02:05:23.139Z,79.5
2017-06-18T02:05:49.256Z,79.4
2017-06-18T02:06:15.358Z,79.21
2017-06-18T02:06:41.492Z,79.21
2017-06-18T02:07:07.587Z,79.3
2017-06-18T02:07:33.683Z,79.11
2017-06-18T02:07:59.773Z,79.21
2017-06-18T02:08:25.880Z,79.3
2017-06-18T02:08:52.010Z,79.3
2017-06-18T02:09:18.101Z,79.88
2017-06-18T02:09:44.202Z,79.79
2017-06-18T02:10:10.310Z,79.79
2017-06-18T02:10:36.397Z,79.21
2017-06-18T02:11:02.523Z,79.3
2017-06-18T02:11:28.630Z,79.4
2017-06-18T02:11:54.720Z,79.4
2017-06-18T02:12:20.816Z,79.3
2017-06-18T02:12:46.916Z,79.4
2017-06-18T02:13:13.018Z,79.21
2017-06-18T02:13:39.151Z,79.3
2017-06-18T02:14:05.239Z,79.11
2017-06-18T02:14:31.341Z,79.69
2017-06-18T02:14:57.446Z,79.98
2017-06-18T02:15:23.562Z,79.79
2017-06-18T02:15:49.658Z,79.79
2017-06-18T02:16:15.765Z,79.69
2017-06-18T02:16:41.884Z,79.6
2017-06-18T02:17:07.954Z,79.69
2017-06-18T02:17:34.086Z,79.69
2017-06-18T02:18:00.182Z,79.69
2017-06-18T02:18:26.286Z,79.79
2017-06-18T02:18:52.376Z,79.6
2017-06-18T02:19:18.472Z,79.69
2017-06-18T02:19:44.581Z,79.88
2017-06-18T02:20:10.695Z,80.46
2017-06-18T02:20:36.786Z,80.55
2017-06-18T02:21:02.924Z,80.27
2017-06-18T02:21:29.050Z,80.27
2017-06-18T02:21:55.191Z,80.17
2017-06-18T02:22:21.295Z,80.17
2017-06-18T02:22:47.423Z,80.65
2017-06-18T02:23:13.563Z,80.65
2017-06-18T02:23:39.692Z,80.65
2017-06-18T02:24:05.833Z,80.55
2017-06-18T02:24:31.943Z,80.65
2017-06-18T02:24:58.039Z,80.55
2017-06-18T02:25:24.131Z,80.17
2017-06-18T02:25:50.237Z,79.88
2017-06-18T02:26:16.339Z,79.98
2017-06-18T02:26:42.427Z,80.17
2017-06-18T02:27:08.531Z,79.79
2017-06-18T02:27:34.636Z,80.07
2017-06-18T02:28:00.748Z,79.88
2017-06-18T02:28:26.850Z,80.17
2017-06-18T02:28:52.984Z,79.6
2017-06-18T02:29:19.074Z,79.69
2017-06-18T02:29:45.171Z,79.69
2017-06-18T02:30:11.277Z,79.69
2017-06-18T02:30:37.372Z,79.88
2017-06-18T02:31:03.488Z,79.5
2017-06-18T02:31:29.603Z,79.88
2017-06-18T02:31:55.723Z,79.98
2017-06-18T02:32:21.814Z,79.4
2017-06-18T02:32:47.923Z,79.5
2017-06-18T02:33:14.022Z,79.5
2017-06-18T02:33:40.112Z,79.6
2017-06-18T02:34:06.215Z,79.3
2017-06-18T02:34:32.320Z,79.4
2017-06-18T02:34:58.414Z,79.69
2017-06-18T02:35:24.511Z,79.5
2017-06-18T02:35:50.600Z,79.5
2017-06-18T02:36:16.706Z,79.21
2017-06-18T02:36:42.860Z,79.6
2017-06-18T02:37:08.950Z,79.3
2017-06-18T02:37:35.052Z,79.3
2017-06-18T02:38:01.159Z,79.5
2017-06-18T02:38:27.274Z,79.5
2017-06-18T02:38:53.399Z,79.21
2017-06-18T02:39:19.533Z,79.21
2017-06-18T02:39:45.648Z,80.07
2017-06-18T02:40:11.746Z,79.11
2017-06-18T02:40:37.843Z,79.21
2017-06-18T02:41:03.971Z,79.88
2017-06-18T02:41:30.106Z,79.79
2017-06-18T02:41:56.225Z,79.79
2017-06-18T02:42:22.324Z,79.5
2017-06-18T02:42:48.457Z,79.5
2017-06-18T02:43:14.548Z,79.4
2017-06-18T02:43:40.695Z,79.5
2017-06-18T02:44:06.857Z,79.5
2017-06-18T02:44:32.952Z,79.4
2017-06-18T02:44:59.043Z,79.6
2017-06-18T02:45:25.153Z,79.3
2017-06-18T02:45:51.272Z,79.4
2017-06-18T02:46:17.377Z,79.11
2017-06-18T02:46:43.517Z,79.11
2017-06-18T02:47:09.615Z,79.4
2017-06-18T02:47:35.717Z,79.79
2017-06-18T02:48:01.838Z,79.69
2017-06-18T02:48:27.928Z,79.5
2017-06-18T02:48:54.037Z,79.6
2017-06-18T02:49:20.134Z,79.4
2017-06-18T02:49:46.252Z,79.3
2017-06-18T02:50:12.385Z,79.21
2017-06-18T02:50:38.513Z,79.3
2017-06-18T02:51:04.630Z,79.5
2017-06-18T02:51:30.732Z,79.6
2017-06-18T02:51:56.826Z,79.69
2017-06-18T02:52:22.934Z,79.5
2017-06-18T02:52:49.030Z,79.79
2017-06-18T02:53:15.120Z,79.79
2017-06-18T02:53:41.256Z,79.69
2017-06-18T02:54:07.357Z,79.3
2017-06-18T02:54:33.447Z,79.4
2017-06-18T02:54:59.549Z,79.4
2017-06-18T02:55:25.683Z,79.21
2017-06-18T02:55:51.797Z,80.07
2017-06-18T02:56:17.899Z,79.69
2017-06-18T02:56:44.004Z,79.98
2017-06-18T02:57:10.093Z,79.98
2017-06-18T02:57:36.197Z,79.98
2017-06-18T02:58:02.288Z,79.98
2017-06-18T02:58:28.390Z,79.88
2017-06-18T02:58:54.497Z,80.07
2017-06-18T02:59:20.582Z,79.88
2017-06-18T02:59:46.709Z,79.69
2017-06-18T03:00:12.843Z,79.69
2017-06-18T03:00:38.933Z,79.4
2017-06-18T03:01:05.056Z,79.4
2017-06-18T03:01:31.187Z,79.4
2017-06-18T03:01:57.281Z,79.4
2017-06-18T03:02:23.371Z,79.3
2017-06-18T03:02:49.475Z,79.3
2017-06-18T03:03:15.577Z,79.11
2017-06-18T03:03:41.708Z,79.79
2017-06-18T03:04:07.799Z,79.88
2017-06-18T03:04:33.898Z,80.27
2017-06-18T03:05:00.030Z,80.36
2017-06-18T03:05:26.123Z,80.22
2017-06-18T03:05:52.213Z,80.27
2017-06-18T03:06:18.324Z,80.17
2017-06-18T03:06:44.448Z,79.6
2017-06-18T03:07:10.563Z,79.69
2017-06-18T03:07:36.671Z,79.69
2017-06-18T03:08:02.771Z,79.79
2017-06-18T03:08:28.878Z,79.5
2017-06-18T03:08:54.974Z,79.69
2017-06-18T03:09:21.089Z,79.69
2017-06-18T03:09:47.225Z,79.88
2017-06-18T03:10:13.322Z,79.79
2017-06-18T03:10:39.414Z,79.79
2017-06-18T03:11:05.522Z,79.88
2017-06-18T03:11:31.650Z,79.3
2017-06-18T03:11:57.740Z,79.3
2017-06-18T03:12:23.846Z,79.4
2017-06-18T03:12:49.979Z,79.69
2017-06-18T03:13:16.066Z,79.4
2017-06-18T03:13:42.195Z,79.6
2017-06-18T03:14:08.327Z,79.98
2017-06-18T03:14:34.416Z,79.88
2017-06-18T03:15:00.538Z,79.79
2017-06-18T03:15:26.670Z,79.69
2017-06-18T03:15:52.764Z,79.88
2017-06-18T03:16:18.880Z,79.88
2017-06-18T03:16:44.991Z,79.6
2017-06-18T03:17:11.088Z,79.69
2017-06-18T03:17:37.179Z,79.98
2017-06-18T03:18:03.285Z,80.22
2017-06-18T03:18:29.386Z,80.32
2017-06-18T03:18:55.477Z,80.04
2017-06-18T03:19:21.603Z,80.04
2017-06-18T03:19:47.694Z,79.84
2017-06-18T03:20:13.831Z,80.61
2017-06-18T03:20:39.928Z,79.94
2017-06-18T03:21:06.020Z,80.13
2017-06-18T03:21:32.127Z,80.61
2017-06-18T03:21:58.254Z,80.22
2017-06-18T03:22:24.373Z,80.22
2017-06-18T03:22:50.503Z,80.9
2017-06-18T03:23:16.634Z,80.8
2017-06-18T03:23:42.749Z,80.71
2017-06-18T03:24:08.848Z,80.9
2017-06-18T03:24:34.983Z,80.42
2017-06-18T03:25:01.075Z,80.22
2017-06-18T03:25:27.207Z,80.51
2017-06-18T03:25:53.323Z,79.84
2017-06-18T03:26:19.424Z,80.13
2017-06-18T03:26:45.531Z,80.22
2017-06-18T03:27:11.645Z,79.94
2017-06-18T03:27:37.795Z,80.32
2017-06-18T03:28:03.902Z,79.5
2017-06-18T03:28:30.022Z,79.46
2017-06-18T03:28:56.117Z,79.36
2017-06-18T03:29:22.250Z,79.55
2017-06-18T03:29:48.342Z,79.65
2017-06-18T03:30:14.458Z,79.69
2017-06-18T03:30:40.589Z,79.79
2017-06-18T03:31:06.716Z,79.79
2017-06-18T03:31:32.849Z,79.75
2017-06-18T03:31:58.940Z,80.27
2017-06-18T03:32:25.036Z,80.27
2017-06-18T03:32:51.171Z,80.04
2017-06-18T03:33:17.264Z,79.84
2017-06-18T03:33:43.355Z,80.22
2017-06-18T03:34:09.465Z,80.32
2017-06-18T03:34:35.561Z,79.84
2017-06-18T03:35:01.653Z,80.32
2017-06-18T03:35:27.759Z,80.13
2017-06-18T03:35:53.861Z,79.84
2017-06-18T03:36:20.015Z,79.98
2017-06-18T03:36:46.106Z,79.84
2017-06-18T03:37:12.197Z,79.94
2017-06-18T03:37:38.308Z,79.84
2017-06-18T03:38:04.405Z,80.04
2017-06-18T03:38:30.496Z,80.22
2017-06-18T03:38:56.602Z,79.84
2017-06-18T03:39:22.730Z,80.13
2017-06-18T03:39:48.847Z,80.32
2017-06-18T03:40:14.951Z,80.22
2017-06-18T03:40:41.059Z,79.84
2017-06-18T03:41:07.145Z,79.84
2017-06-18T03:41:33.244Z,80.42
2017-06-18T03:41:59.338Z,80.22
2017-06-18T03:42:25.442Z,80.71
2017-06-18T03:42:51.546Z,80.42
2017-06-18T03:43:17.631Z,80.51
2017-06-18T03:43:43.734Z,80.61
2017-06-18T03:44:09.894Z,80.71
2017-06-18T03:44:35.983Z,80.61
2017-06-18T03:45:02.082Z,80.42
2017-06-18T03:45:28.186Z,80.22
2017-06-18T03:45:54.300Z,80.22
2017-06-18T03:46:20.424Z,80.61
2017-06-18T03:46:46.557Z,80.32
2017-06-18T03:47:12.649Z,80.51
2017-06-18T03:47:38.755Z,80.22
2017-06-18T03:48:04.841Z,80.22
2017-06-18T03:48:30.964Z,80.9
2017-06-18T03:48:57.096Z,80.9
2017-06-18T03:49:23.188Z,80.61
2017-06-18T03:49:49.286Z,80.8
2017-06-18T03:50:15.388Z,80.71
2017-06-18T03:50:41.483Z,80.42
2017-06-18T03:51:07.575Z,80.99
2017-06-18T03:51:33.683Z,80.8
2017-06-18T03:51:59.778Z,80.51
2017-06-18T03:52:25.893Z,80.8
2017-06-18T03:52:52.000Z,80.8
2017-06-18T03:53:18.121Z,80.42
2017-06-18T03:53:44.226Z,80.42
2017-06-18T03:54:10.323Z,80.32
2017-06-18T03:54:36.413Z,80.42
2017-06-18T03:55:02.522Z,80.42
2017-06-18T03:55:28.617Z,80.71
2017-06-18T03:55:54.731Z,80.32
2017-06-18T03:56:20.840Z,80.99
2017-06-18T03:56:46.943Z,80.9
2017-06-18T03:57:13.034Z,81.28
2017-06-18T03:57:39.134Z,80.99
2017-06-18T03:58:05.341Z,81.48
2017-06-18T03:58:31.453Z,81.57
2017-06-18T03:58:57.552Z,81.38
2017-06-18T03:59:23.688Z,80.9
2017-06-18T03:59:49.779Z,80.8
2017-06-18T04:00:15.876Z,80.61
2017-06-18T04:00:41.981Z,81.28
2017-06-18T04:01:08.074Z,80.8
2017-06-18T04:01:34.190Z,80.8
2017-06-18T04:02:00.352Z,80.71
2017-06-18T04:02:26.450Z,80.8
2017-06-18T04:02:52.543Z,81.19
2017-06-18T04:03:18.650Z,80.9
2017-06-18T04:03:44.753Z,80.8
2017-06-18T04:04:10.851Z,81.28
2017-06-18T04:04:36.946Z,81.57
2017-06-18T04:05:03.037Z,81.09
2017-06-18T04:05:29.144Z,80.9
2017-06-18T04:05:55.245Z,80.99
2017-06-18T04:06:21.361Z,80.99
2017-06-18T04:06:47.439Z,81.19
2017-06-18T04:07:13.565Z,80.8
2017-06-18T04:07:39.657Z,80.8
2017-06-18T04:08:05.758Z,80.8
2017-06-18T04:08:31.891Z,80.61
2017-06-18T04:08:57.979Z,80.99
2017-06-18T04:09:24.079Z,80.9
2017-06-18T04:09:50.172Z,80.51
2017-06-18T04:10:16.279Z,80.42
2017-06-18T04:10:42.376Z,80.42
2017-06-18T04:11:08.468Z,80.22
2017-06-18T04:11:34.571Z,80.71
2017-06-18T04:12:00.706Z,80.51
2017-06-18T04:12:26.792Z,80.51
2017-06-18T04:12:52.891Z,80.61
2017-06-18T04:13:18.996Z,80.13
2017-06-18T04:13:45.089Z,80.13
2017-06-18T04:14:11.188Z,80.13
2017-06-18T04:14:37.292Z,80.22
2017-06-18T04:15:03.415Z,80.04
2017-06-18T04:15:29.522Z,80.04
2017-06-18T04:15:55.609Z,79.94
2017-06-18T04:16:21.707Z,79.84
2017-06-18T04:16:47.814Z,80.27
2017-06-18T04:17:13.906Z,80.27
2017-06-18T04:17:40.004Z,79.75
2017-06-18T04:18:06.107Z,79.55
2017-06-18T04:18:32.203Z,79.46
2017-06-18T04:18:58.318Z,79.5
2017-06-18T04:19:24.430Z,79.65
2017-06-18T04:19:50.526Z,79.79
2017-06-18T04:20:16.643Z,79.69
2017-06-18T04:20:42.749Z,79.5
2017-06-18T04:21:08.869Z,79.98
2017-06-18T04:21:34.974Z,79.88
2017-06-18T04:22:01.068Z,79.11
2017-06-18T04:22:27.158Z,79.4
2017-06-18T04:22:53.269Z,79.4
2017-06-18T04:23:19.421Z,79.4
2017-06-18T04:23:45.511Z,79.4
2017-06-18T04:24:11.618Z,79.21
2017-06-18T04:24:37.718Z,79.11
2017-06-18T04:25:03.810Z,79.11
2017-06-18T04:25:29.937Z,79.79
2017-06-18T04:25:56.044Z,79.79
2017-06-18T04:26:22.138Z,79.5
2017-06-18T04:26:48.238Z,79.5
2017-06-18T04:27:14.328Z,79.98
2017-06-18T04:27:40.433Z,80.17
2017-06-18T04:28:06.531Z,79.11
2017-06-18T04:28:32.646Z,79.3
2017-06-18T04:28:58.803Z,79.21
2017-06-18T04:29:24.910Z,79.5
2017-06-18T04:29:51.024Z,79.4
2017-06-18T04:30:17.149Z,79.4
2017-06-18T04:30:43.256Z,79.6
2017-06-18T04:31:09.346Z,79.69
2017-06-18T04:31:35.442Z,79.3
2017-06-18T04:32:01.566Z,79.3
2017-06-18T04:32:27.688Z,79.5
2017-06-18T04:32:53.794Z,79.21
2017-06-18T04:33:19.882Z,79.3
2017-06-18T04:33:45.982Z,79.11
2017-06-18T04:34:12.088Z,79.4
2017-06-18T04:34:38.181Z,79.69
2017-06-18T04:35:04.277Z,79.5
2017-06-18T04:35:30.410Z,79.21
2017-06-18T04:35:56.504Z,79.79
2017-06-18T04:36:22.596Z,79.5
2017-06-18T04:36:48.704Z,79.6
2017-06-18T04:37:14.802Z,79.88
2017-06-18T04:37:40.929Z,79.88
2017-06-18T04:38:07.045Z,80.27
2017-06-18T04:38:33.142Z,79.79
2017-06-18T04:38:59.250Z,79.6
2017-06-18T04:39:25.372Z,79.69
2017-06-18T04:39:51.466Z,79.69
2017-06-18T04:40:17.575Z,79.92
2017-06-18T04:40:43.701Z,79.53
2017-06-18T04:41:09.818Z,79.1
2017-06-18T04:41:35.924Z,78.42
2017-06-18T04:42:02.023Z,77.78
2017-06-18T04:42:28.138Z,76.73
2017-06-18T04:42:54.294Z,75.51
2017-06-18T04:43:20.401Z,75.07
2017-06-18T04:43:46.513Z,73.82
2017-06-18T04:44:12.614Z,72.31
2017-06-18T04:44:38.719Z,71.64
2017-06-18T04:45:04.811Z,71
2017-06-18T04:45:30.909Z,70.42
2017-06-18T04:45:57.019Z,69.39
2017-06-18T04:46:23.112Z,68.71
2017-06-18T04:46:49.203Z,68.26
2017-06-18T04:47:15.314Z,67.01
2017-06-18T04:47:41.412Z,66.56
2017-06-18T04:48:07.505Z,65.3
2017-06-18T04:48:33.612Z,64.92
2017-06-18T04:48:59.709Z,64.66
2017-06-18T04:49:25.844Z,63.69
2017-06-18T04:49:51.937Z,63.69
2017-06-18T04:50:18.028Z,63.5
2017-06-18T04:50:44.140Z,62.76
2017-06-18T04:51:10.263Z,62.95
2017-06-18T04:51:36.380Z,61.72
2017-06-18T04:52:02.539Z,61.43
2017-06-18T04:52:28.639Z,60.66
2017-06-18T04:52:54.755Z,60.11
2017-06-18T04:53:20.859Z,60.3
2017-06-18T04:53:46.968Z,59.36
2017-06-18T04:54:13.092Z,58.3
2017-06-18T04:54:39.187Z,57.84
2017-06-18T04:55:05.278Z,57.75
2017-06-18T04:55:31.387Z,56.9
2017-06-18T04:55:57.488Z,56.71
2017-06-18T04:56:23.581Z,56.41
2017-06-18T04:56:49.687Z,56.32
2017-06-18T04:57:15.796Z,55.77
2017-06-18T04:57:41.906Z,54.99
2017-06-18T04:58:08.008Z,54.7
2017-06-18T04:58:34.116Z,53.95
2017-06-18T04:59:00.209Z,53.75
2017-06-18T04:59:26.311Z,53.75
2017-06-18T04:59:52.408Z,53.97
2017-06-18T05:00:18.514Z,53.59
2017-06-18T05:00:44.621Z,52.52
2017-06-18T05:01:10.711Z,52.52
2017-06-18T05:01:36.814Z,52.33
2017-06-18T05:02:02.950Z,52.15
2017-06-18T05:02:29.045Z,51.57
2017-06-18T05:02:55.170Z,51.77
2017-06-18T05:03:21.279Z,51.4
2017-06-18T05:03:47.705Z,50.92
2017-06-18T05:04:13.799Z,50.73
2017-06-18T05:04:39.911Z,49.97
2017-06-18T05:05:06.066Z,49.39
2017-06-18T05:05:32.221Z,49.39
2017-06-18T05:05:58.315Z,49.39
2017-06-18T05:06:24.414Z,48.83
2017-06-18T05:06:50.553Z,49.12
2017-06-18T05:07:16.677Z,49.12
2017-06-18T05:07:42.770Z,48.83
2017-06-18T05:08:08.910Z,48.27
2017-06-18T05:08:35.011Z,47.88
2017-06-18T05:09:01.106Z,47.98
2017-06-18T05:09:27.236Z,47.78
2017-06-18T05:09:53.336Z,46.91
2017-06-18T05:10:19.429Z,46.64
2017-06-18T05:10:45.563Z,46.73
2017-06-18T05:11:11.681Z,46.54
2017-06-18T05:11:37.795Z,46.15
2017-06-18T05:12:03.922Z,45.95
2017-06-18T05:12:30.015Z,45.95
2017-06-18T05:12:56.124Z,45.88
2017-06-18T05:13:22.280Z,45.59
2017-06-18T05:13:48.373Z,45.49
2017-06-18T05:14:14.478Z,45.68
2017-06-18T05:14:40.587Z,45.2
2017-06-18T05:15:06.678Z,45.29
2017-06-18T05:15:32.784Z,45.59
2017-06-18T05:15:58.920Z,45.49
2017-06-18T05:16:25.012Z,45.68
2017-06-18T05:16:51.119Z,45.67
2017-06-18T05:17:17.236Z,45.47
2017-06-18T05:17:43.339Z,45.67
2017-06-18T05:18:09.476Z,45.76
2017-06-18T05:18:35.568Z,46.23
2017-06-18T05:19:01.718Z,46.61
2017-06-18T05:19:27.828Z,46.42
2017-06-18T05:19:53.922Z,46.51
2017-06-18T05:20:20.023Z,47.76
2017-06-18T05:20:46.131Z,47.96
2017-06-18T05:21:12.253Z,47.93
2017-06-18T05:21:38.346Z,48.41
2017-06-18T05:22:04.454Z,48.78
2017-06-18T05:22:30.555Z,49.27
2017-06-18T05:22:56.720Z,49.37
2017-06-18T05:23:22.840Z,49.76
2017-06-18T05:23:48.940Z,50.04
2017-06-18T05:24:15.050Z,50.6
2017-06-18T05:24:41.201Z,50.6
2017-06-18T05:25:07.344Z,51.16
2017-06-18T05:25:33.456Z,51.35
2017-06-18T05:25:59.554Z,52.3
2017-06-18T05:26:25.645Z,52.86
2017-06-18T05:26:51.782Z,53.44
2017-06-18T05:27:17.885Z,53.8
2017-06-18T05:27:43.979Z,54.38
2017-06-18T05:28:10.083Z,54.09
2017-06-18T05:28:36.235Z,54.28
2017-06-18T05:29:02.339Z,54.96
2017-06-18T05:29:28.439Z,55.71
2017-06-18T05:29:54.548Z,56.07
2017-06-18T05:30:20.639Z,57.04
2017-06-18T05:30:46.737Z,57.98
2017-06-18T05:31:12.874Z,58.27
2017-06-18T05:31:38.993Z,58.72
2017-06-18T05:32:05.085Z,58.82
2017-06-18T05:32:31.198Z,58.72
2017-06-18T05:32:57.324Z,59.21
2017-06-18T05:33:23.454Z,59.31
2017-06-18T05:33:49.548Z,59.21
2017-06-18T05:34:15.670Z,59.11
2017-06-18T05:34:41.777Z,60.05
2017-06-18T05:35:07.871Z,60.34
2017-06-18T05:35:33.962Z,60.69
2017-06-18T05:36:00.102Z,61.08
2017-06-18T05:36:26.202Z,61.27
2017-06-18T05:36:52.369Z,61.76
2017-06-18T05:37:18.480Z,61.76
2017-06-18T05:37:44.580Z,61.57
2017-06-18T05:38:10.672Z,61.66
2017-06-18T05:38:36.777Z,62.34
2017-06-18T05:39:02.869Z,62.5